sensor_id;sensor_type;location;lat;lon;timestamp;P1;durP1;ratioP1;P2;durP2;ratioP2
17414;SDS011;8825;48.086;16.426;2023-11-19T00:01:16;115.55;;;109.85;;
17414;SDS011;8825;48.086;16.426;2023-11-19T00:03:44;111.12;;;105.58;;
17414;SDS011;8825;48.086;16.426;2023-11-19T00:06:11;99.15;;;94.03;;
17414;SDS011;8825;48.086;16.426;2023-11-19T00:08:39;115.97;;;110.37;;
17414;SDS011;8825;48.086;16.426;2023-11-19T00:11:06;111.77;;;106.07;;
17414;SDS011;8825;48.086;16.426;2023-11-19T00:13:34;125.62;;;119.15;;
17414;SDS011;8825;48.086;16.426;2023-11-19T00:16:01;138.12;;;131.35;;
17414;SDS011;8825;48.086;16.426;2023-11-19T00:18:30;158.90;;;151.35;;
17414;SDS011;8825;48.086;16.426;2023-11-19T00:20:58;173.95;;;166.35;;
17414;SDS011;8825;48.086;16.426;2023-11-19T00:23:26;154.97;;;147.72;;
17414;SDS011;8825;48.086;16.426;2023-11-19T00:25:53;169.50;;;161.80;;
17414;SDS011;8825;48.086;16.426;2023-11-19T00:28:21;144.62;;;137.50;;
17414;SDS011;8825;48.086;16.426;2023-11-19T00:30:49;128.00;;;121.77;;
17414;SDS011;8825;48.086;16.426;2023-11-19T00:33:17;118.33;;;112.42;;
17414;SDS011;8825;48.086;16.426;2023-11-19T00:35:44;118.70;;;112.77;;
17414;SDS011;8825;48.086;16.426;2023-11-19T00:38:12;115.28;;;109.63;;
17414;SDS011;8825;48.086;16.426;2023-11-19T00:40:39;115.75;;;109.70;;
17414;SDS011;8825;48.086;16.426;2023-11-19T00:43:07;128.20;;;122.13;;
17414;SDS011;8825;48.086;16.426;2023-11-19T00:45:35;114.57;;;108.90;;
17414;SDS011;8825;48.086;16.426;2023-11-19T00:48:02;131.25;;;124.80;;
17414;SDS011;8825;48.086;16.426;2023-11-19T00:50:30;133.22;;;126.58;;
17414;SDS011;8825;48.086;16.426;2023-11-19T00:52:58;169.20;;;161.47;;
17414;SDS011;8825;48.086;16.426;2023-11-19T00:55:25;189.40;;;180.85;;
17414;SDS011;8825;48.086;16.426;2023-11-19T00:57:53;183.60;;;175.40;;
17414;SDS011;8825;48.086;16.426;2023-11-19T01:00:22;181.87;;;173.62;;
17414;SDS011;8825;48.086;16.426;2023-11-19T01:02:51;168.75;;;161.05;;
17414;SDS011;8825;48.086;16.426;2023-11-19T01:05:19;138.05;;;131.63;;
17414;SDS011;8825;48.086;16.426;2023-11-19T01:07:50;121.53;;;115.67;;
17414;SDS011;8825;48.086;16.426;2023-11-19T01:10:19;118.67;;;113.20;;
17414;SDS011;8825;48.086;16.426;2023-11-19T01:12:47;127.20;;;121.15;;
17414;SDS011;8825;48.086;16.426;2023-11-19T01:15:14;132.10;;;125.95;;
17414;SDS011;8825;48.086;16.426;2023-11-19T01:17:44;154.93;;;147.50;;
17414;SDS011;8825;48.086;16.426;2023-11-19T01:20:11;267.93;;;255.05;;
17414;SDS011;8825;48.086;16.426;2023-11-19T01:22:39;257.43;;;245.35;;
17414;SDS011;8825;48.086;16.426;2023-11-19T01:25:07;260.50;;;248.13;;
17414;SDS011;8825;48.086;16.426;2023-11-19T01:27:34;239.95;;;228.77;;
17414;SDS011;8825;48.086;16.426;2023-11-19T01:30:02;280.30;;;266.52;;
17414;SDS011;8825;48.086;16.426;2023-11-19T01:32:31;198.05;;;188.10;;
17414;SDS011;8825;48.086;16.426;2023-11-19T01:34:59;313.80;;;299.27;;
17414;SDS011;8825;48.086;16.426;2023-11-19T01:37:26;250.78;;;239.40;;
17414;SDS011;8825;48.086;16.426;2023-11-19T01:39:54;295.42;;;281.55;;
17414;SDS011;8825;48.086;16.426;2023-11-19T01:42:21;224.85;;;215.30;;
17414;SDS011;8825;48.086;16.426;2023-11-19T01:45:00;111.90;;;106.65;;
17414;SDS011;8825;48.086;16.426;2023-11-19T01:47:28;135.28;;;128.87;;
17414;SDS011;8825;48.086;16.426;2023-11-19T01:49:57;149.30;;;142.35;;
17414;SDS011;8825;48.086;16.426;2023-11-19T01:52:26;102.40;;;97.50;;
17414;SDS011;8825;48.086;16.426;2023-11-19T01:54:54;113.72;;;108.45;;
17414;SDS011;8825;48.086;16.426;2023-11-19T01:57:22;124.78;;;118.95;;
17414;SDS011;8825;48.086;16.426;2023-11-19T01:59:51;97.88;;;93.25;;
17414;SDS011;8825;48.086;16.426;2023-11-19T02:02:19;105.30;;;100.47;;
17414;SDS011;8825;48.086;16.426;2023-11-19T02:04:49;116.08;;;110.63;;
17414;SDS011;8825;48.086;16.426;2023-11-19T02:07:17;97.97;;;93.35;;
17414;SDS011;8825;48.086;16.426;2023-11-19T02:09:46;104.15;;;99.22;;
17414;SDS011;8825;48.086;16.426;2023-11-19T02:12:13;99.35;;;94.67;;
17414;SDS011;8825;48.086;16.426;2023-11-19T02:14:41;81.60;;;77.47;;
17414;SDS011;8825;48.086;16.426;2023-11-19T02:17:24;108.52;;;103.53;;
17414;SDS011;8825;48.086;16.426;2023-11-19T02:20:01;121.53;;;115.80;;
17414;SDS011;8825;48.086;16.426;2023-11-19T02:22:29;121.03;;;115.43;;
17414;SDS011;8825;48.086;16.426;2023-11-19T02:24:58;110.33;;;105.13;;
17414;SDS011;8825;48.086;16.426;2023-11-19T02:30:21;77.17;;;72.57;;
17414;SDS011;8825;48.086;16.426;2023-11-19T02:32:55;146.93;;;140.20;;
17414;SDS011;8825;48.086;16.426;2023-11-19T02:35:24;100.13;;;95.53;;
17414;SDS011;8825;48.086;16.426;2023-11-19T02:37:52;93.43;;;89.03;;
17414;SDS011;8825;48.086;16.426;2023-11-19T02:40:22;146.03;;;139.67;;
17414;SDS011;8825;48.086;16.426;2023-11-19T02:42:50;87.90;;;83.80;;
17414;SDS011;8825;48.086;16.426;2023-11-19T02:45:25;68.60;;;65.13;;
17414;SDS011;8825;48.086;16.426;2023-11-19T02:47:55;67.20;;;63.67;;
17414;SDS011;8825;48.086;16.426;2023-11-19T02:50:23;99.50;;;94.73;;
17414;SDS011;8825;48.086;16.426;2023-11-19T02:52:52;91.60;;;87.17;;
17414;SDS011;8825;48.086;16.426;2023-11-19T02:55:22;83.73;;;79.63;;
17414;SDS011;8825;48.086;16.426;2023-11-19T02:57:50;94.37;;;89.90;;
17414;SDS011;8825;48.086;16.426;2023-11-19T03:00:19;90.73;;;86.43;;
17414;SDS011;8825;48.086;16.426;2023-11-19T03:02:52;91.03;;;86.53;;
17414;SDS011;8825;48.086;16.426;2023-11-19T03:05:21;83.05;;;79.00;;
17414;SDS011;8825;48.086;16.426;2023-11-19T03:07:49;71.22;;;67.58;;
17414;SDS011;8825;48.086;16.426;2023-11-19T03:10:17;69.30;;;66.13;;
17414;SDS011;8825;48.086;16.426;2023-11-19T03:12:45;74.37;;;70.90;;
17414;SDS011;8825;48.086;16.426;2023-11-19T03:15:12;65.13;;;62.13;;
17414;SDS011;8825;48.086;16.426;2023-11-19T03:17:40;77.97;;;74.23;;
17414;SDS011;8825;48.086;16.426;2023-11-19T03:20:11;82.37;;;78.63;;
17414;SDS011;8825;48.086;16.426;2023-11-19T03:22:41;92.63;;;88.37;;
17414;SDS011;8825;48.086;16.426;2023-11-19T03:25:10;86.60;;;82.70;;
17414;SDS011;8825;48.086;16.426;2023-11-19T03:27:39;78.27;;;74.53;;
17414;SDS011;8825;48.086;16.426;2023-11-19T03:30:08;99.63;;;95.20;;
17414;SDS011;8825;48.086;16.426;2023-11-19T03:32:36;103.13;;;98.60;;
17414;SDS011;8825;48.086;16.426;2023-11-19T03:35:05;106.23;;;101.27;;
17414;SDS011;8825;48.086;16.426;2023-11-19T03:37:34;74.37;;;70.83;;
17414;SDS011;8825;48.086;16.426;2023-11-19T03:40:02;75.70;;;72.17;;
17414;SDS011;8825;48.086;16.426;2023-11-19T03:42:30;78.43;;;74.83;;
17414;SDS011;8825;48.086;16.426;2023-11-19T03:44:58;76.97;;;73.33;;
17414;SDS011;8825;48.086;16.426;2023-11-19T03:47:26;79.43;;;75.57;;
17414;SDS011;8825;48.086;16.426;2023-11-19T03:49:53;100.03;;;95.30;;
17414;SDS011;8825;48.086;16.426;2023-11-19T03:52:21;105.63;;;100.77;;
17414;SDS011;8825;48.086;16.426;2023-11-19T03:54:48;102.47;;;97.57;;
17414;SDS011;8825;48.086;16.426;2023-11-19T03:57:16;96.73;;;92.23;;
17414;SDS011;8825;48.086;16.426;2023-11-19T03:59:44;94.13;;;89.70;;
17414;SDS011;8825;48.086;16.426;2023-11-19T04:02:11;93.83;;;89.37;;
17414;SDS011;8825;48.086;16.426;2023-11-19T04:04:39;93.50;;;89.17;;
17414;SDS011;8825;48.086;16.426;2023-11-19T04:07:07;73.67;;;70.13;;
17414;SDS011;8825;48.086;16.426;2023-11-19T04:09:35;73.10;;;69.50;;
17414;SDS011;8825;48.086;16.426;2023-11-19T04:12:03;68.17;;;64.67;;
17414;SDS011;8825;48.086;16.426;2023-11-19T04:14:31;68.30;;;64.97;;
17414;SDS011;8825;48.086;16.426;2023-11-19T04:16:58;78.37;;;74.70;;
17414;SDS011;8825;48.086;16.426;2023-11-19T04:19:26;81.17;;;77.33;;
17414;SDS011;8825;48.086;16.426;2023-11-19T04:21:54;63.63;;;60.40;;
17414;SDS011;8825;48.086;16.426;2023-11-19T04:24:21;63.17;;;59.97;;
17414;SDS011;8825;48.086;16.426;2023-11-19T04:26:50;49.77;;;47.20;;
17414;SDS011;8825;48.086;16.426;2023-11-19T04:29:18;59.40;;;56.30;;
17414;SDS011;8825;48.086;16.426;2023-11-19T04:31:45;51.73;;;49.03;;
17414;SDS011;8825;48.086;16.426;2023-11-19T04:34:13;49.00;;;46.50;;
17414;SDS011;8825;48.086;16.426;2023-11-19T04:36:41;52.30;;;49.40;;
17414;SDS011;8825;48.086;16.426;2023-11-19T04:39:09;50.13;;;47.43;;
17414;SDS011;8825;48.086;16.426;2023-11-19T04:41:51;60.23;;;57.13;;
17414;SDS011;8825;48.086;16.426;2023-11-19T04:44:18;58.00;;;55.00;;
17414;SDS011;8825;48.086;16.426;2023-11-19T04:46:47;65.53;;;62.20;;
17414;SDS011;8825;48.086;16.426;2023-11-19T04:49:15;71.10;;;67.47;;
17414;SDS011;8825;48.086;16.426;2023-11-19T04:51:44;71.33;;;67.53;;
17414;SDS011;8825;48.086;16.426;2023-11-19T04:54:16;67.80;;;64.37;;
17414;SDS011;8825;48.086;16.426;2023-11-19T04:56:47;74.03;;;70.23;;
17414;SDS011;8825;48.086;16.426;2023-11-19T04:59:14;68.37;;;64.87;;
17414;SDS011;8825;48.086;16.426;2023-11-19T05:01:46;77.17;;;73.37;;
17414;SDS011;8825;48.086;16.426;2023-11-19T05:04:16;83.80;;;79.77;;
17414;SDS011;8825;48.086;16.426;2023-11-19T05:06:44;61.40;;;58.03;;
17414;SDS011;8825;48.086;16.426;2023-11-19T05:09:12;71.30;;;67.57;;
17414;SDS011;8825;48.086;16.426;2023-11-19T05:11:39;73.83;;;70.17;;
17414;SDS011;8825;48.086;16.426;2023-11-19T05:14:07;76.90;;;73.00;;
17414;SDS011;8825;48.086;16.426;2023-11-19T05:16:35;75.07;;;71.33;;
17414;SDS011;8825;48.086;16.426;2023-11-19T05:19:02;78.28;;;74.40;;
17414;SDS011;8825;48.086;16.426;2023-11-19T05:21:30;91.70;;;87.23;;
17414;SDS011;8825;48.086;16.426;2023-11-19T05:23:57;91.20;;;86.73;;
17414;SDS011;8825;48.086;16.426;2023-11-19T05:26:25;93.40;;;88.90;;
17414;SDS011;8825;48.086;16.426;2023-11-19T05:28:53;80.77;;;76.77;;
17414;SDS011;8825;48.086;16.426;2023-11-19T05:31:20;70.17;;;66.30;;
17414;SDS011;8825;48.086;16.426;2023-11-19T05:33:48;73.97;;;70.10;;
17414;SDS011;8825;48.086;16.426;2023-11-19T05:36:15;79.27;;;75.43;;
17414;SDS011;8825;48.086;16.426;2023-11-19T05:38:43;65.53;;;62.27;;
17414;SDS011;8825;48.086;16.426;2023-11-19T05:41:10;68.33;;;64.97;;
17414;SDS011;8825;48.086;16.426;2023-11-19T05:43:38;68.33;;;64.70;;
17414;SDS011;8825;48.086;16.426;2023-11-19T05:46:07;64.60;;;61.23;;
17414;SDS011;8825;48.086;16.426;2023-11-19T05:48:35;68.83;;;65.23;;
17414;SDS011;8825;48.086;16.426;2023-11-19T05:51:02;52.00;;;49.23;;
17414;SDS011;8825;48.086;16.426;2023-11-19T05:53:31;59.30;;;56.23;;
17414;SDS011;8825;48.086;16.426;2023-11-19T05:55:58;63.60;;;60.43;;
17414;SDS011;8825;48.086;16.426;2023-11-19T05:58:28;64.23;;;60.93;;
17414;SDS011;8825;48.086;16.426;2023-11-19T06:00:56;52.63;;;49.90;;
17414;SDS011;8825;48.086;16.426;2023-11-19T06:03:25;57.07;;;54.17;;
17414;SDS011;8825;48.086;16.426;2023-11-19T06:05:53;58.10;;;54.87;;
17414;SDS011;8825;48.086;16.426;2023-11-19T06:08:21;55.50;;;52.60;;
17414;SDS011;8825;48.086;16.426;2023-11-19T06:10:48;61.53;;;58.30;;
17414;SDS011;8825;48.086;16.426;2023-11-19T06:13:17;62.53;;;58.93;;
17414;SDS011;8825;48.086;16.426;2023-11-19T06:15:45;66.40;;;62.97;;
17414;SDS011;8825;48.086;16.426;2023-11-19T06:18:12;67.60;;;64.17;;
17414;SDS011;8825;48.086;16.426;2023-11-19T06:20:40;80.63;;;76.53;;
17414;SDS011;8825;48.086;16.426;2023-11-19T06:23:08;69.97;;;66.47;;
17414;SDS011;8825;48.086;16.426;2023-11-19T06:25:35;80.70;;;76.80;;
17414;SDS011;8825;48.086;16.426;2023-11-19T06:28:03;72.27;;;68.57;;
17414;SDS011;8825;48.086;16.426;2023-11-19T06:30:31;82.33;;;78.23;;
17414;SDS011;8825;48.086;16.426;2023-11-19T06:32:58;71.37;;;67.87;;
17414;SDS011;8825;48.086;16.426;2023-11-19T06:35:26;71.87;;;68.27;;
17414;SDS011;8825;48.086;16.426;2023-11-19T06:37:55;73.17;;;69.50;;
17414;SDS011;8825;48.086;16.426;2023-11-19T06:40:23;77.53;;;73.53;;
17414;SDS011;8825;48.086;16.426;2023-11-19T06:42:51;86.47;;;82.13;;
17414;SDS011;8825;48.086;16.426;2023-11-19T06:45:18;61.57;;;58.40;;
17414;SDS011;8825;48.086;16.426;2023-11-19T06:47:46;54.40;;;51.67;;
17414;SDS011;8825;48.086;16.426;2023-11-19T06:50:13;68.23;;;64.73;;
17414;SDS011;8825;48.086;16.426;2023-11-19T06:52:42;71.07;;;67.37;;
17414;SDS011;8825;48.086;16.426;2023-11-19T06:55:10;81.13;;;77.03;;
17414;SDS011;8825;48.086;16.426;2023-11-19T06:57:38;78.43;;;74.60;;
17414;SDS011;8825;48.086;16.426;2023-11-19T07:00:06;133.60;;;127.30;;
17414;SDS011;8825;48.086;16.426;2023-11-19T07:02:34;81.33;;;77.20;;
17414;SDS011;8825;48.086;16.426;2023-11-19T07:05:02;74.17;;;70.43;;
17414;SDS011;8825;48.086;16.426;2023-11-19T07:07:31;100.93;;;95.97;;
17414;SDS011;8825;48.086;16.426;2023-11-19T07:09:59;167.17;;;159.50;;
17414;SDS011;8825;48.086;16.426;2023-11-19T07:12:28;68.53;;;64.87;;
17414;SDS011;8825;48.086;16.426;2023-11-19T07:14:56;150.83;;;143.87;;
17414;SDS011;8825;48.086;16.426;2023-11-19T07:17:23;119.50;;;114.07;;
17414;SDS011;8825;48.086;16.426;2023-11-19T07:19:51;105.27;;;100.23;;
17414;SDS011;8825;48.086;16.426;2023-11-19T07:22:18;114.13;;;108.87;;
17414;SDS011;8825;48.086;16.426;2023-11-19T07:24:46;116.03;;;110.63;;
17414;SDS011;8825;48.086;16.426;2023-11-19T07:27:13;123.90;;;117.00;;
17414;SDS011;8825;48.086;16.426;2023-11-19T07:29:43;109.50;;;103.40;;
17414;SDS011;8825;48.086;16.426;2023-11-19T07:32:11;93.40;;;88.60;;
17414;SDS011;8825;48.086;16.426;2023-11-19T07:34:39;133.10;;;126.73;;
17414;SDS011;8825;48.086;16.426;2023-11-19T07:37:07;106.10;;;101.00;;
17414;SDS011;8825;48.086;16.426;2023-11-19T07:39:34;112.87;;;107.50;;
17414;SDS011;8825;48.086;16.426;2023-11-19T07:42:03;86.93;;;82.63;;
17414;SDS011;8825;48.086;16.426;2023-11-19T07:44:32;68.23;;;64.87;;
17414;SDS011;8825;48.086;16.426;2023-11-19T07:46:59;76.90;;;73.07;;
17414;SDS011;8825;48.086;16.426;2023-11-19T07:49:27;73.33;;;69.53;;
17414;SDS011;8825;48.086;16.426;2023-11-19T07:51:56;71.60;;;67.93;;
17414;SDS011;8825;48.086;16.426;2023-11-19T07:54:24;95.73;;;90.83;;
17414;SDS011;8825;48.086;16.426;2023-11-19T07:56:51;109.07;;;103.60;;
17414;SDS011;8825;48.086;16.426;2023-11-19T07:59:19;86.03;;;81.87;;
17414;SDS011;8825;48.086;16.426;2023-11-19T08:01:47;67.30;;;64.07;;
17414;SDS011;8825;48.086;16.426;2023-11-19T08:04:14;68.77;;;65.40;;
17414;SDS011;8825;48.086;16.426;2023-11-19T08:06:42;86.73;;;82.63;;
17414;SDS011;8825;48.086;16.426;2023-11-19T08:09:09;93.63;;;89.13;;
17414;SDS011;8825;48.086;16.426;2023-11-19T08:11:40;123.37;;;117.40;;
17414;SDS011;8825;48.086;16.426;2023-11-19T08:14:08;140.13;;;133.20;;
17414;SDS011;8825;48.086;16.426;2023-11-19T08:16:36;129.07;;;122.30;;
17414;SDS011;8825;48.086;16.426;2023-11-19T08:19:05;123.40;;;117.07;;
17414;SDS011;8825;48.086;16.426;2023-11-19T08:21:34;132.30;;;125.40;;
17414;SDS011;8825;48.086;16.426;2023-11-19T08:24:01;148.70;;;141.13;;
17414;SDS011;8825;48.086;16.426;2023-11-19T08:26:29;171.70;;;163.10;;
17414;SDS011;8825;48.086;16.426;2023-11-19T08:28:57;261.37;;;249.07;;
17414;SDS011;8825;48.086;16.426;2023-11-19T08:31:24;128.23;;;122.53;;
17414;SDS011;8825;48.086;16.426;2023-11-19T08:33:52;141.00;;;134.77;;
17414;SDS011;8825;48.086;16.426;2023-11-19T08:36:19;145.10;;;138.50;;
17414;SDS011;8825;48.086;16.426;2023-11-19T08:38:47;147.67;;;141.10;;
17414;SDS011;8825;48.086;16.426;2023-11-19T08:41:15;176.27;;;168.57;;
17414;SDS011;8825;48.086;16.426;2023-11-19T08:43:44;179.50;;;171.87;;
17414;SDS011;8825;48.086;16.426;2023-11-19T08:46:12;176.27;;;168.67;;
17414;SDS011;8825;48.086;16.426;2023-11-19T08:48:40;141.30;;;135.00;;
17414;SDS011;8825;48.086;16.426;2023-11-19T08:51:07;136.23;;;130.27;;
17414;SDS011;8825;48.086;16.426;2023-11-19T08:53:35;160.43;;;153.53;;
17414;SDS011;8825;48.086;16.426;2023-11-19T08:56:02;179.37;;;171.00;;
17414;SDS011;8825;48.086;16.426;2023-11-19T08:58:31;196.13;;;187.57;;
17414;SDS011;8825;48.086;16.426;2023-11-19T09:00:58;181.63;;;173.73;;
17414;SDS011;8825;48.086;16.426;2023-11-19T09:03:26;231.97;;;221.20;;
17414;SDS011;8825;48.086;16.426;2023-11-19T09:05:55;172.73;;;165.60;;
17414;SDS011;8825;48.086;16.426;2023-11-19T09:08:23;171.97;;;164.97;;
17414;SDS011;8825;48.086;16.426;2023-11-19T09:10:50;168.47;;;160.73;;
17414;SDS011;8825;48.086;16.426;2023-11-19T09:13:18;222.60;;;212.53;;
17414;SDS011;8825;48.086;16.426;2023-11-19T09:15:45;224.20;;;214.30;;
17414;SDS011;8825;48.086;16.426;2023-11-19T09:18:13;206.03;;;197.13;;
17414;SDS011;8825;48.086;16.426;2023-11-19T09:20:40;183.20;;;175.23;;
17414;SDS011;8825;48.086;16.426;2023-11-19T09:23:08;138.53;;;132.60;;
17414;SDS011;8825;48.086;16.426;2023-11-19T09:25:36;152.00;;;145.27;;
17414;SDS011;8825;48.086;16.426;2023-11-19T09:28:03;157.73;;;150.87;;
17414;SDS011;8825;48.086;16.426;2023-11-19T09:30:31;126.87;;;121.37;;
17414;SDS011;8825;48.086;16.426;2023-11-19T09:32:59;105.33;;;100.80;;
17414;SDS011;8825;48.086;16.426;2023-11-19T09:35:27;186.27;;;177.27;;
17414;SDS011;8825;48.086;16.426;2023-11-19T09:37:54;119.80;;;114.23;;
17414;SDS011;8825;48.086;16.426;2023-11-19T09:40:22;140.87;;;134.63;;
17414;SDS011;8825;48.086;16.426;2023-11-19T09:42:50;99.00;;;94.63;;
17414;SDS011;8825;48.086;16.426;2023-11-19T09:45:18;101.77;;;97.27;;
17414;SDS011;8825;48.086;16.426;2023-11-19T09:47:47;138.03;;;131.23;;
17414;SDS011;8825;48.086;16.426;2023-11-19T09:50:18;116.10;;;111.00;;
17414;SDS011;8825;48.086;16.426;2023-11-19T09:52:47;125.77;;;120.33;;
17414;SDS011;8825;48.086;16.426;2023-11-19T09:55:14;95.33;;;91.10;;
17414;SDS011;8825;48.086;16.426;2023-11-19T09:57:42;123.37;;;117.80;;
17414;SDS011;8825;48.086;16.426;2023-11-19T10:00:11;101.83;;;97.23;;
17414;SDS011;8825;48.086;16.426;2023-11-19T10:02:41;112.20;;;107.30;;
17414;SDS011;8825;48.086;16.426;2023-11-19T10:05:11;166.83;;;159.30;;
17414;SDS011;8825;48.086;16.426;2023-11-19T10:07:40;114.50;;;109.50;;
17414;SDS011;8825;48.086;16.426;2023-11-19T10:10:08;108.47;;;103.53;;
17414;SDS011;8825;48.086;16.426;2023-11-19T10:12:38;116.47;;;111.07;;
17414;SDS011;8825;48.086;16.426;2023-11-19T10:15:06;149.20;;;142.37;;
17414;SDS011;8825;48.086;16.426;2023-11-19T10:17:37;129.37;;;123.43;;
17414;SDS011;8825;48.086;16.426;2023-11-19T10:20:05;198.80;;;189.83;;
17414;SDS011;8825;48.086;16.426;2023-11-19T10:22:36;183.67;;;175.47;;
17414;SDS011;8825;48.086;16.426;2023-11-19T10:25:04;117.10;;;111.90;;
17414;SDS011;8825;48.086;16.426;2023-11-19T10:27:34;118.20;;;112.87;;
17414;SDS011;8825;48.086;16.426;2023-11-19T10:30:02;117.30;;;112.20;;
17414;SDS011;8825;48.086;16.426;2023-11-19T10:32:30;131.67;;;125.97;;
17414;SDS011;8825;48.086;16.426;2023-11-19T10:35:04;159.10;;;151.93;;
17414;SDS011;8825;48.086;16.426;2023-11-19T10:37:33;221.87;;;212.20;;
17414;SDS011;8825;48.086;16.426;2023-11-19T10:40:02;125.27;;;119.67;;
17414;SDS011;8825;48.086;16.426;2023-11-19T10:42:34;153.57;;;146.80;;
17414;SDS011;8825;48.086;16.426;2023-11-19T10:45:02;133.47;;;127.47;;
17414;SDS011;8825;48.086;16.426;2023-11-19T10:47:30;134.90;;;128.87;;
17414;SDS011;8825;48.086;16.426;2023-11-19T10:50:00;188.03;;;179.53;;
17414;SDS011;8825;48.086;16.426;2023-11-19T10:52:27;115.60;;;110.60;;
17414;SDS011;8825;48.086;16.426;2023-11-19T10:54:55;132.23;;;126.07;;
17414;SDS011;8825;48.086;16.426;2023-11-19T10:57:27;131.60;;;125.87;;
17414;SDS011;8825;48.086;16.426;2023-11-19T11:00:00;120.67;;;115.27;;
17414;SDS011;8825;48.086;16.426;2023-11-19T11:02:30;137.80;;;131.70;;
17414;SDS011;8825;48.086;16.426;2023-11-19T11:05:00;141.53;;;135.20;;
17414;SDS011;8825;48.086;16.426;2023-11-19T11:07:29;145.80;;;139.40;;
17414;SDS011;8825;48.086;16.426;2023-11-19T11:09:59;190.80;;;182.37;;
17414;SDS011;8825;48.086;16.426;2023-11-19T11:12:29;193.60;;;185.13;;
17414;SDS011;8825;48.086;16.426;2023-11-19T11:14:59;175.50;;;167.93;;
17414;SDS011;8825;48.086;16.426;2023-11-19T11:17:30;200.57;;;191.53;;
17414;SDS011;8825;48.086;16.426;2023-11-19T11:19:59;177.23;;;169.43;;
17414;SDS011;8825;48.086;16.426;2023-11-19T11:22:28;193.33;;;184.87;;
17414;SDS011;8825;48.086;16.426;2023-11-19T11:25:08;190.13;;;181.73;;
17414;SDS011;8825;48.086;16.426;2023-11-19T11:33:26;248.33;;;237.37;;
17414;SDS011;8825;48.086;16.426;2023-11-19T11:35:55;174.43;;;166.90;;
17414;SDS011;8825;48.086;16.426;2023-11-19T11:38:28;194.20;;;185.60;;
17414;SDS011;8825;48.086;16.426;2023-11-19T11:41:15;200.23;;;191.53;;
17414;SDS011;8825;48.086;16.426;2023-11-19T11:43:48;188.67;;;180.17;;
17414;SDS011;8825;48.086;16.426;2023-11-19T11:49:03;169.43;;;161.97;;
17414;SDS011;8825;48.086;16.426;2023-11-19T12:02:20;185.30;;;176.83;;
17414;SDS011;8825;48.086;16.426;2023-11-19T12:04:49;157.93;;;150.47;;
17414;SDS011;8825;48.086;16.426;2023-11-19T12:07:19;191.10;;;182.70;;
17414;SDS011;8825;48.086;16.426;2023-11-19T12:10:09;132.73;;;126.57;;
17414;SDS011;8825;48.086;16.426;2023-11-19T12:12:22;116.77;;;111.53;;
17414;SDS011;8825;48.086;16.426;2023-11-19T12:17:42;151.53;;;143.50;;
17414;SDS011;8825;48.086;16.426;2023-11-19T12:20:11;138.23;;;130.73;;
17414;SDS011;8825;48.086;16.426;2023-11-19T12:22:40;156.50;;;148.67;;
17414;SDS011;8825;48.086;16.426;2023-11-19T12:25:09;141.90;;;135.03;;
17414;SDS011;8825;48.086;16.426;2023-11-19T12:27:44;117.23;;;111.67;;
17414;SDS011;8825;48.086;16.426;2023-11-19T12:30:22;115.47;;;110.10;;
17414;SDS011;8825;48.086;16.426;2023-11-19T12:32:51;112.23;;;106.87;;
17414;SDS011;8825;48.086;16.426;2023-11-19T12:35:20;135.87;;;129.63;;
17414;SDS011;8825;48.086;16.426;2023-11-19T12:37:48;195.03;;;185.83;;
17414;SDS011;8825;48.086;16.426;2023-11-19T12:40:18;197.23;;;187.87;;
17414;SDS011;8825;48.086;16.426;2023-11-19T12:42:47;119.80;;;114.47;;
17414;SDS011;8825;48.086;16.426;2023-11-19T12:45:15;143.90;;;137.30;;
17414;SDS011;8825;48.086;16.426;2023-11-19T12:47:45;134.20;;;127.63;;
17414;SDS011;8825;48.086;16.426;2023-11-19T12:50:15;126.17;;;120.37;;
17414;SDS011;8825;48.086;16.426;2023-11-19T12:52:56;132.73;;;126.77;;
17414;SDS011;8825;48.086;16.426;2023-11-19T12:55:25;124.83;;;119.07;;
17414;SDS011;8825;48.086;16.426;2023-11-19T12:57:58;102.77;;;98.03;;
17414;SDS011;8825;48.086;16.426;2023-11-19T13:00:26;127.40;;;121.47;;
17414;SDS011;8825;48.086;16.426;2023-11-19T13:02:55;132.10;;;126.13;;
17414;SDS011;8825;48.086;16.426;2023-11-19T13:05:30;106.87;;;101.90;;
17414;SDS011;8825;48.086;16.426;2023-11-19T13:08:06;117.67;;;112.17;;
17414;SDS011;8825;48.086;16.426;2023-11-19T13:10:50;122.17;;;116.57;;
17414;SDS011;8825;48.086;16.426;2023-11-19T13:13:22;142.57;;;136.00;;
17414;SDS011;8825;48.086;16.426;2023-11-19T13:15:49;111.83;;;106.73;;
17414;SDS011;8825;48.086;16.426;2023-11-19T13:18:17;102.27;;;97.57;;
17414;SDS011;8825;48.086;16.426;2023-11-19T13:20:44;98.20;;;93.50;;
17414;SDS011;8825;48.086;16.426;2023-11-19T13:23:12;100.40;;;95.10;;
17414;SDS011;8825;48.086;16.426;2023-11-19T13:25:41;93.20;;;88.57;;
17414;SDS011;8825;48.086;16.426;2023-11-19T13:28:09;79.47;;;75.37;;
17414;SDS011;8825;48.086;16.426;2023-11-19T13:30:37;106.37;;;101.13;;
17414;SDS011;8825;48.086;16.426;2023-11-19T13:33:04;73.17;;;69.23;;
17414;SDS011;8825;48.086;16.426;2023-11-19T13:35:32;71.43;;;67.67;;
17414;SDS011;8825;48.086;16.426;2023-11-19T13:37:59;125.40;;;119.43;;
17414;SDS011;8825;48.086;16.426;2023-11-19T13:40:27;107.63;;;102.73;;
17414;SDS011;8825;48.086;16.426;2023-11-19T13:42:54;72.03;;;68.37;;
17414;SDS011;8825;48.086;16.426;2023-11-19T13:45:22;96.93;;;92.30;;
17414;SDS011;8825;48.086;16.426;2023-11-19T13:47:50;93.90;;;89.50;;
17414;SDS011;8825;48.086;16.426;2023-11-19T13:50:17;104.83;;;99.60;;
17414;SDS011;8825;48.086;16.426;2023-11-19T13:52:46;84.37;;;79.87;;
17414;SDS011;8825;48.086;16.426;2023-11-19T13:55:13;67.97;;;64.47;;
17414;SDS011;8825;48.086;16.426;2023-11-19T13:57:41;86.13;;;81.93;;
17414;SDS011;8825;48.086;16.426;2023-11-19T14:00:09;86.53;;;82.23;;
17414;SDS011;8825;48.086;16.426;2023-11-19T14:02:42;80.13;;;76.13;;
17414;SDS011;8825;48.086;16.426;2023-11-19T14:05:09;94.87;;;90.20;;
17414;SDS011;8825;48.086;16.426;2023-11-19T14:07:37;103.97;;;99.23;;
17414;SDS011;8825;48.086;16.426;2023-11-19T14:10:07;122.93;;;117.33;;
17414;SDS011;8825;48.086;16.426;2023-11-19T14:12:41;75.10;;;71.47;;
17414;SDS011;8825;48.086;16.426;2023-11-19T14:15:05;82.00;;;77.93;;
17414;SDS011;8825;48.086;16.426;2023-11-19T14:17:36;89.63;;;85.30;;
17414;SDS011;8825;48.086;16.426;2023-11-19T14:20:04;96.70;;;91.90;;
17414;SDS011;8825;48.086;16.426;2023-11-19T14:22:37;79.33;;;75.40;;
17414;SDS011;8825;48.086;16.426;2023-11-19T14:25:06;74.53;;;70.53;;
17414;SDS011;8825;48.086;16.426;2023-11-19T14:27:36;90.03;;;85.73;;
17414;SDS011;8825;48.086;16.426;2023-11-19T14:30:07;89.33;;;84.83;;
17414;SDS011;8825;48.086;16.426;2023-11-19T14:32:38;69.63;;;66.03;;
17414;SDS011;8825;48.086;16.426;2023-11-19T14:35:06;65.03;;;61.57;;
17414;SDS011;8825;48.086;16.426;2023-11-19T14:37:34;58.93;;;55.80;;
17414;SDS011;8825;48.086;16.426;2023-11-19T14:40:02;54.07;;;51.07;;
17414;SDS011;8825;48.086;16.426;2023-11-19T14:42:31;69.50;;;65.97;;